Bradford, OH (45308)

10:18 PM EDT on September 01, 2014 (GMT -0400)
KOHVERSA2 | Change Station
CLOSE
Current Station
Personal Weather Station
Location: Versailles, OH
Elevation: 1001 ft
Nearby Weather Stations

Elev 1001 ft 40.22 °N, 84.48 °W | Updated 3 seconds ago

Clear
Clear
75.8 °F
Feels Like 77 °F
N
0.0
Wind Variable Wind from SSW
Gusts 10.0 mph

Today
High -- | Low -- °F
--% Chance of Precip.
Yesterday
High -- | Low -- °F
Precip. -- in
7:05 AM 8:09 PM
Waxing Crescent, 46% visible
Pressure 29.92 in
Visibility 10.0 miles
Clouds Clear
Heat Index 77 °F
Dew Point 70 °F
Humidity 82%
Rainfall 0.24 in
Snow Depth Not available.
UV 0 out of 12
Pollen 10.00 out of 12
Ozone Good
PM2.5 Good
Flu Activity Not available.
METAR KVES 020155Z AUTO 22008KT 10SM CLR 23/22 A2992 RMK AO2

More Conditions Fewer Conditions

Pressure 29.92 in
Visibility 10.0 miles
Clouds Clear
Heat Index 77 °F
Dew Point 70 °F
Humidity 82%
Rainfall 0.24 in
Snow Depth Not available.
UV 0 out of 12
Pollen 10.00 out of 12
Ozone Good
PM2.5 Good
Flu Activity Not available.
METAR KVES 020155Z AUTO 22008KT 10SM CLR 23/22 A2992 RMK AO2

More Conditions Fewer Conditions

10-Day Weather Forecast

Almanac

Astronomy

Sep. 01, 2014 Rise Set
Actual Time 7:05 AM EDT 8:09 PM EDT
Civil Twilight 6:37 AM EDT 8:37 PM EDT
Nautical Twilight 6:04 AM EDT 9:10 PM EDT
Astronomical Twilight 5:29 AM EDT 9:44 PM EDT
Moon 1:50 PM EDT (9/1) No Moon Set
Length of Visible Light 13h 59m
Length of Day
13h 03m
Tomorrow will be 2m 32s shorter.
Waxing Crescent, 46% of the Moon is Illuminated
Today
Waxing Crescent
Sep 2
First Quarter
Sep 8
Full
Sep 15
Last Quarter
Sep 24
New

Today's Extremes

State Highs State Lows

Community

WunderPhotos

Upload Photos

1,749,493 photos uploaded!

Nearby

Air Quality

  Air Quality AQ Index Pollutant
Yesterday Good
PM2.5
Yesterday Good
OZONE
Current Good
PM2.5
Current Good
OZONE
Monday Moderate
PM2.5
Monday Good
OZONE
Tuesday Moderate
PM2.5
Tuesday Good
OZONE

Snow Depth

Station Depth Elevation
No new snow has been reported.

Earthquake Activity

City Distance Mag. Time & Date
No recent earthquake activity has been reported nearby.
Minimum magnitude displayed is 2.5.

Coastal Water Temperatures

Place Temperature
No Stations Reporting

Nearby Weather Stations